Time;durP1;ratioP1;P1;durP2;ratioP2;P2;SDS_P1;SDS_P2;PMS_P1;PMS_P2;Temp;Humidity;BMP_temperature;BMP_pressure;BME280_temperature;BME280_humidity;BME280_pressure;Samples;Min_cycle;Max_cycle;Signal;HPM_P1;HPM_P2
2022/09/24 00:01:13;;;;;;;13.73;9.63;;;11.90;99.90;;;;;;4995967;28;20159;-73
2022/09/24 00:03:40;;;;;;;11.93;9.77;;;11.80;99.90;;;;;;4995601;28;20157;-73
2022/09/24 00:06:07;;;;;;;17.70;8.93;;;11.80;99.90;;;;;;5000977;28;20187;-73
2022/09/24 00:08:34;;;;;;;12.60;8.77;;;11.80;99.90;;;;;;5033517;28;20193;-72
2022/09/24 00:11:05;;;;;;;10.90;9.17;;;11.80;99.90;;;;;;5034618;28;20232;-73
2022/09/24 00:13:32;;;;;;;11.82;9.40;;;11.90;99.90;;;;;;5034874;28;20255;-73
2022/09/24 00:16:03;;;;;;;11.80;9.02;;;11.90;99.90;;;;;;5019014;28;20649;-73
2022/09/24 00:18:29;;;;;;;12.60;8.23;;;11.90;99.90;;;;;;5014555;28;20200;-73
2022/09/24 00:20:55;;;;;;;10.30;8.63;;;11.90;99.90;;;;;;5015092;28;20219;-73
2022/09/24 00:23:21;;;;;;;10.43;8.32;;;11.90;99.90;;;;;;5015006;28;20175;-73
2022/09/24 00:28:31;;;;;;;13.87;9.23;;;11.90;99.90;;;;;;5002656;28;20187;-73
2022/09/24 00:31:02;;;;;;;10.80;8.93;;;11.90;99.90;;;;;;4995110;28;20219;-73
2022/09/24 00:33:28;;;;;;;12.67;9.30;;;11.90;99.90;;;;;;4994790;28;20187;-73
2022/09/24 00:36:03;;;;;;;10.07;8.50;;;11.90;99.90;;;;;;4996942;28;20168;-73
2022/09/24 00:38:31;;;;;;;13.00;9.48;;;11.80;99.90;;;;;;5034052;28;20523;-73
2022/09/24 00:40:58;;;;;;;11.17;8.97;;;11.70;99.90;;;;;;5034202;28;20167;-73
2022/09/24 00:43:33;;;;;;;11.50;8.33;;;11.70;99.90;;;;;;5034431;28;20167;-73
2022/09/24 00:46:24;;;;;;;9.40;8.47;;;11.70;99.90;;;;;;5018876;28;20187;-74
2022/09/24 00:48:56;;;;;;;9.87;8.57;;;11.70;99.90;;;;;;5014575;28;20554;-73
2022/09/24 00:51:25;;;;;;;12.70;8.40;;;11.80;99.90;;;;;;5014447;28;20157;-73
2022/09/24 00:53:57;;;;;;;12.00;8.93;;;11.80;99.90;;;;;;5014521;28;20205;-73
2022/09/24 00:56:23;;;;;;;13.23;9.17;;;11.80;99.90;;;;;;5014589;28;20371;-73
2022/09/24 00:58:51;;;;;;;10.07;8.97;;;11.80;99.90;;;;;;4998667;28;20232;-73
2022/09/24 01:01:19;;;;;;;12.93;9.80;;;11.80;99.90;;;;;;4994966;28;20660;-73
2022/09/24 01:03:48;;;;;;;10.83;8.77;;;11.70;99.90;;;;;;4994383;28;20180;-73
2022/09/24 01:06:13;;;;;;;15.43;9.27;;;11.80;99.90;;;;;;5002113;28;20183;-73
2022/09/24 01:08:39;;;;;;;11.17;9.03;;;11.80;99.90;;;;;;5033811;28;20258;-73
2022/09/24 01:11:38;;;;;;;11.27;8.77;;;11.80;99.90;;;;;;5033858;28;20175;-73
2022/09/24 01:14:31;;;;;;;13.03;8.50;;;11.80;99.90;;;;;;5034501;28;20234;-73
2022/09/24 01:17:11;;;;;;;9.47;8.13;;;11.80;99.90;;;;;;4992179;28;20191;-73
2022/09/24 01:20:00;;;;;;;14.27;8.17;;;11.80;99.90;;;;;;4994699;28;20586;-73
2022/09/24 01:23:03;;;;;;;11.33;8.33;;;11.80;99.90;;;;;;4993102;28;20311;-73
2022/09/24 01:26:00;;;;;;;11.13;8.80;;;11.80;99.90;;;;;;4994342;28;20168;-73
2022/09/24 01:28:40;;;;;;;9.67;8.10;;;11.80;99.90;;;;;;5005660;28;20184;-73
2022/09/24 01:31:15;;;;;;;17.27;8.90;;;11.70;99.90;;;;;;5013981;28;20179;-73
2022/09/24 01:33:43;;;;;;;10.57;9.07;;;11.70;99.90;;;;;;5013721;28;20156;-73
2022/09/24 01:36:11;;;;;;;11.27;8.30;;;11.80;99.90;;;;;;5015486;28;20190;-73
2022/09/24 01:38:41;;;;;;;9.13;8.17;;;11.80;99.90;;;;;;5035776;28;20206;-73
2022/09/24 01:41:09;;;;;;;10.05;7.85;;;11.80;99.90;;;;;;5036276;28;20182;-73
2022/09/24 01:43:36;;;;;;;10.40;8.10;;;11.80;99.90;;;;;;5037925;28;20212;-73
2022/09/24 01:46:05;;;;;;;10.70;7.77;;;11.80;99.90;;;;;;5023005;28;20180;-73
2022/09/24 01:48:33;;;;;;;10.07;7.70;;;11.90;99.90;;;;;;5016500;28;20645;-74
2022/09/24 01:51:13;;;;;;;10.57;8.30;;;11.90;99.90;;;;;;5017432;28;20172;-73
2022/09/24 01:53:50;;;;;;;9.02;7.93;;;11.90;99.90;;;;;;5016637;28;20504;-73
2022/09/24 01:56:23;;;;;;;15.98;8.20;;;12.00;99.90;;;;;;5018322;28;20518;-73
2022/09/24 01:59:26;;;;;;;16.83;8.27;;;12.00;99.90;;;;;;5001423;28;20220;-73
2022/09/24 02:02:06;;;;;;;8.95;8.02;;;12.00;99.90;;;;;;4976587;28;20192;-73
2022/09/24 02:04:41;;;;;;;10.57;8.45;;;12.00;99.90;;;;;;4997763;28;20165;-73
2022/09/24 02:07:18;;;;;;;12.97;9.37;;;12.00;99.90;;;;;;5019711;28;20175;-73
2022/09/24 02:09:44;;;;;;;11.80;9.33;;;11.90;99.90;;;;;;5037054;28;20543;-73
2022/09/24 02:12:42;;;;;;;11.50;9.60;;;11.90;99.90;;;;;;5036970;28;20175;-73
2022/09/24 02:15:19;;;;;;;12.93;9.10;;;11.90;99.90;;;;;;4996170;28;20544;-73
2022/09/24 02:17:47;;;;;;;11.70;9.20;;;11.90;99.90;;;;;;5017166;28;20159;-73
2022/09/24 02:20:19;;;;;;;11.68;9.05;;;11.90;99.90;;;;;;5015545;28;20216;-73
2022/09/24 02:22:47;;;;;;;16.07;9.63;;;11.90;99.90;;;;;;5015948;28;20637;-73
2022/09/24 02:25:17;;;;;;;11.48;8.85;;;11.90;99.90;;;;;;5015740;28;20184;-73
2022/09/24 02:27:43;;;;;;;11.93;9.00;;;11.90;99.90;;;;;;5009900;28;20724;-73
2022/09/24 02:30:09;;;;;;;14.48;8.85;;;11.90;99.90;;;;;;4997167;28;20196;-73
2022/09/24 02:32:38;;;;;;;12.18;9.07;;;11.80;99.90;;;;;;4997026;28;20179;-73
2022/09/24 02:35:07;;;;;;;13.75;9.23;;;11.80;99.90;;;;;;4997440;28;20177;-73
2022/09/24 02:37:36;;;;;;;14.83;8.73;;;11.80;99.90;;;;;;5026169;28;20201;-73
2022/09/24 02:40:04;;;;;;;14.13;8.93;;;11.80;99.90;;;;;;5036286;28;20203;-73
2022/09/24 02:42:30;;;;;;;10.23;8.57;;;11.80;99.90;;;;;;5035167;28;20663;-73
2022/09/24 02:44:58;;;;;;;12.23;9.90;;;11.80;99.90;;;;;;5030983;28;20575;-73
2022/09/24 02:47:25;;;;;;;12.50;8.73;;;11.80;99.90;;;;;;5016401;28;20520;-73
2022/09/24 02:49:50;;;;;;;12.60;9.10;;;11.80;99.90;;;;;;5016482;28;20214;-73
2022/09/24 02:52:17;;;;;;;13.38;8.90;;;11.70;99.90;;;;;;5015036;28;20660;-73
2022/09/24 02:54:43;;;;;;;10.82;8.68;;;11.70;99.90;;;;;;5016270;28;20172;-73
2022/09/24 02:57:09;;;;;;;12.00;9.75;;;11.70;99.90;;;;;;5014062;28;20180;-73
2022/09/24 02:59:35;;;;;;;10.88;7.97;;;11.70;99.90;;;;;;4995430;28;20270;-73
2022/09/24 03:02:01;;;;;;;14.02;8.68;;;11.70;99.90;;;;;;4995382;28;20259;-73
2022/09/24 03:04:28;;;;;;;10.73;8.35;;;11.70;99.90;;;;;;4996740;28;20173;-73
2022/09/24 03:06:54;;;;;;;11.60;8.57;;;11.70;99.90;;;;;;5013439;28;20187;-73
2022/09/24 03:09:19;;;;;;;9.73;8.03;;;11.70;99.90;;;;;;5034867;28;20287;-73
2022/09/24 03:11:46;;;;;;;11.40;7.90;;;11.70;99.90;;;;;;5035902;28;20636;-73
2022/09/24 03:14:12;;;;;;;10.67;8.07;;;11.70;99.90;;;;;;5034491;28;20190;-73
2022/09/24 03:16:38;;;;;;;10.53;8.37;;;11.70;99.90;;;;;;5016095;28;20188;-73
2022/09/24 03:19:04;;;;;;;9.43;7.87;;;11.80;99.90;;;;;;5015612;28;20211;-73
2022/09/24 03:21:30;;;;;;;10.82;8.18;;;11.80;99.90;;;;;;5015887;28;20644;-73
2022/09/24 03:23:56;;;;;;;9.50;8.43;;;11.80;99.90;;;;;;5015747;28;20172;-73
2022/09/24 03:26:22;;;;;;;12.07;8.30;;;11.80;99.90;;;;;;5015942;28;20180;-73
2022/09/24 03:28:48;;;;;;;11.03;8.47;;;11.80;99.90;;;;;;5001281;28;20201;-73
2022/09/24 03:31:14;;;;;;;10.38;8.63;;;11.70;99.90;;;;;;4996091;28;20672;-73
2022/09/24 03:33:48;;;;;;;9.75;8.18;;;11.80;99.90;;;;;;4995850;28;20260;-73
2022/09/24 03:36:24;;;;;;;9.27;7.78;;;11.80;99.90;;;;;;5003584;28;20187;-73
2022/09/24 03:38:55;;;;;;;10.97;7.80;;;11.70;99.90;;;;;;5035675;28;20202;-73
2022/09/24 03:41:26;;;;;;;12.05;8.38;;;11.80;99.90;;;;;;5035493;28;20159;-73
2022/09/24 03:43:52;;;;;;;13.47;8.37;;;11.80;99.90;;;;;;5033969;28;20194;-73
2022/09/24 03:46:18;;;;;;;12.93;8.30;;;11.80;99.90;;;;;;5018296;28;20175;-71
2022/09/24 03:48:45;;;;;;;11.93;8.57;;;11.80;99.90;;;;;;5013823;28;20291;-73
2022/09/24 03:51:17;;;;;;;13.48;8.95;;;11.80;99.90;;;;;;5015366;28;20171;-73
2022/09/24 03:53:43;;;;;;;10.53;8.70;;;11.80;99.90;;;;;;5015412;28;20163;-73
2022/09/24 03:56:10;;;;;;;12.07;7.90;;;11.80;99.90;;;;;;5013954;28;20207;-73
2022/09/24 03:58:37;;;;;;;14.02;8.98;;;11.80;99.90;;;;;;5002298;28;20192;-73
2022/09/24 04:01:09;;;;;;;13.90;8.75;;;11.70;99.90;;;;;;4995166;28;20187;-73
2022/09/24 04:03:36;;;;;;;16.33;8.83;;;11.70;99.90;;;;;;4995649;28;20204;-73
2022/09/24 04:06:02;;;;;;;9.60;8.60;;;11.70;99.90;;;;;;4999585;28;20187;-73
2022/09/24 04:08:28;;;;;;;13.63;8.87;;;11.80;99.90;;;;;;5034924;28;20209;-73
2022/09/24 04:10:54;;;;;;;13.67;8.60;;;11.70;99.90;;;;;;5034894;28;20171;-73
2022/09/24 04:13:20;;;;;;;11.50;8.45;;;11.70;99.90;;;;;;5033490;28;20175;-73
2022/09/24 04:15:47;;;;;;;12.23;8.60;;;11.70;99.90;;;;;;5021033;28;20180;-73
2022/09/24 04:18:13;;;;;;;11.13;9.10;;;11.70;99.90;;;;;;5013418;28;20179;-73
2022/09/24 04:20:40;;;;;;;11.43;8.37;;;11.70;99.90;;;;;;5014657;28;20208;-74
2022/09/24 04:23:06;;;;;;;9.53;8.50;;;11.70;99.90;;;;;;5015231;28;20255;-73
2022/09/24 04:25:32;;;;;;;11.90;9.07;;;11.60;99.90;;;;;;5013618;28;20607;-73
2022/09/24 04:28:00;;;;;;;13.02;9.07;;;11.60;99.90;;;;;;5007575;28;20180;-73
2022/09/24 04:30:27;;;;;;;15.30;8.30;;;11.60;99.90;;;;;;4994235;28;20217;-73
2022/09/24 04:32:53;;;;;;;10.20;8.60;;;11.60;99.90;;;;;;4994937;28;20267;-73
2022/09/24 04:35:21;;;;;;;9.87;8.20;;;11.60;99.90;;;;;;4995267;28;20578;-73
2022/09/24 04:37:47;;;;;;;10.40;8.53;;;11.60;99.90;;;;;;5027951;28;20183;-73
2022/09/24 04:40:14;;;;;;;11.47;8.73;;;11.60;99.90;;;;;;5034182;28;20206;-73
2022/09/24 04:42:41;;;;;;;11.40;8.50;;;11.60;99.90;;;;;;5034365;28;20199;-73
2022/09/24 04:45:09;;;;;;;10.98;8.15;;;11.60;99.90;;;;;;5027248;28;20261;-73
2022/09/24 04:47:36;;;;;;;13.00;8.43;;;11.60;99.90;;;;;;5012904;28;20263;-73
2022/09/24 04:50:03;;;;;;;11.90;8.00;;;11.60;99.90;;;;;;5014965;28;20254;-73
2022/09/24 04:52:32;;;;;;;11.20;8.75;;;11.60;99.90;;;;;;5014428;28;20180;-73
2022/09/24 04:54:59;;;;;;;9.35;8.07;;;11.60;99.90;;;;;;5014530;28;20176;-73
2022/09/24 04:57:26;;;;;;;10.53;8.23;;;11.70;99.90;;;;;;5011063;28;20184;-73
2022/09/24 04:59:52;;;;;;;10.40;8.20;;;11.60;99.90;;;;;;4994578;28;20634;-73
2022/09/24 05:02:18;;;;;;;14.20;8.73;;;11.70;99.90;;;;;;4994706;28;20169;-73
2022/09/24 05:04:44;;;;;;;11.73;8.50;;;11.60;99.90;;;;;;4994484;28;20203;-73
2022/09/24 05:07:10;;;;;;;9.85;8.32;;;11.70;99.90;;;;;;5017185;28;20209;-73
2022/09/24 05:09:36;;;;;;;11.43;8.40;;;11.70;99.90;;;;;;5033882;28;20222;-73
2022/09/24 05:12:03;;;;;;;10.93;8.63;;;11.60;99.90;;;;;;5033492;28;20175;-73
2022/09/24 05:14:29;;;;;;;10.63;8.52;;;11.60;99.90;;;;;;5030116;28;20651;-73
2022/09/24 05:16:55;;;;;;;12.63;9.07;;;11.60;99.90;;;;;;5012729;28;20190;-73
2022/09/24 05:19:21;;;;;;;15.70;10.10;;;11.60;99.90;;;;;;5013432;28;20204;-73
2022/09/24 05:21:47;;;;;;;13.00;9.82;;;11.50;99.90;;;;;;5013870;28;20535;-73
2022/09/24 05:24:13;;;;;;;13.38;9.43;;;11.50;99.90;;;;;;5012581;28;20290;-73
2022/09/24 05:29:23;;;;;;;10.50;9.23;;;11.50;99.90;;;;;;4994748;28;20262;-73
2022/09/24 05:31:48;;;;;;;10.90;9.80;;;11.50;99.90;;;;;;4992875;28;20220;-73
2022/09/24 05:34:15;;;;;;;11.85;8.80;;;11.50;99.90;;;;;;4994280;28;20172;-73
2022/09/24 05:36:43;;;;;;;12.37;9.60;;;11.50;99.90;;;;;;5009124;28;20628;-73
2022/09/24 05:39:10;;;;;;;10.87;9.77;;;11.50;99.90;;;;;;5033454;28;20203;-74
2022/09/24 05:41:37;;;;;;;10.47;8.23;;;11.50;99.90;;;;;;5032426;28;20175;-73
2022/09/24 05:44:03;;;;;;;10.32;8.80;;;11.50;99.90;;;;;;5033935;28;20246;-73
2022/09/24 05:46:29;;;;;;;12.97;8.90;;;11.60;99.90;;;;;;5014990;28;20180;-73
2022/09/24 05:48:55;;;;;;;12.47;8.57;;;11.60;99.90;;;;;;5013808;28;20609;-73
2022/09/24 05:51:21;;;;;;;13.00;9.60;;;11.60;99.90;;;;;;5013665;28;20176;-73
2022/09/24 05:53:47;;;;;;;14.00;9.87;;;11.60;99.90;;;;;;5013925;28;20184;-73
2022/09/24 05:56:13;;;;;;;13.48;9.48;;;11.60;99.90;;;;;;5013666;28;20660;-73
2022/09/24 05:58:38;;;;;;;10.77;8.63;;;11.60;99.90;;;;;;4999163;28;20196;-73
2022/09/24 06:01:04;;;;;;;11.65;9.35;;;11.60;99.90;;;;;;4994527;28;20161;-72
2022/09/24 06:03:30;;;;;;;10.43;8.77;;;11.60;99.90;;;;;;4994281;28;20222;-73
2022/09/24 06:06:00;;;;;;;10.53;9.07;;;11.60;99.90;;;;;;4995737;28;20572;-73
2022/09/24 06:08:27;;;;;;;10.38;8.90;;;11.60;99.90;;;;;;5033949;28;20643;-73
2022/09/24 06:10:58;;;;;;;11.30;9.30;;;11.60;99.90;;;;;;5032214;28;20722;-74
2022/09/24 06:13:24;;;;;;;14.53;9.67;;;11.60;99.90;;;;;;5033851;28;20159;-73
2022/09/24 06:15:49;;;;;;;12.27;9.17;;;11.60;99.90;;;;;;5020253;28;20263;-73
2022/09/24 06:18:15;;;;;;;13.63;9.57;;;11.70;99.90;;;;;;5012186;28;20175;-73
2022/09/24 06:20:41;;;;;;;12.63;9.77;;;11.60;99.90;;;;;;5013225;28;20712;-73
2022/09/24 06:23:07;;;;;;;11.43;9.67;;;11.70;99.90;;;;;;5012186;28;20183;-73
2022/09/24 06:25:33;;;;;;;11.43;8.93;;;11.70;99.90;;;;;;5017194;28;20195;-74
2022/09/24 06:28:03;;;;;;;15.03;9.70;;;11.70;99.90;;;;;;5009314;28;20180;-73
2022/09/24 06:30:33;;;;;;;10.70;8.83;;;11.70;99.90;;;;;;4997564;28;20563;-74
2022/09/24 06:33:12;;;;;;;18.10;10.23;;;11.70;99.90;;;;;;4995993;28;20184;-75
2022/09/24 06:35:41;;;;;;;11.30;9.10;;;11.70;99.90;;;;;;4997799;28;20244;-75
2022/09/24 06:38:12;;;;;;;9.70;8.52;;;11.80;99.90;;;;;;5034765;28;20219;-72
2022/09/24 06:40:38;;;;;;;10.48;8.88;;;11.80;99.90;;;;;;5035472;28;20210;-71
2022/09/24 06:43:05;;;;;;;11.20;9.98;;;11.90;99.90;;;;;;5036637;28;20171;-73
2022/09/24 06:45:32;;;;;;;11.68;8.85;;;11.90;99.90;;;;;;5026035;28;20188;-72
2022/09/24 06:47:59;;;;;;;11.05;8.93;;;12.00;99.90;;;;;;5016669;28;20633;-72
2022/09/24 06:50:27;;;;;;;12.63;9.05;;;12.00;99.90;;;;;;5015803;28;20679;-73
2022/09/24 06:52:54;;;;;;;10.27;9.13;;;12.00;99.90;;;;;;5016549;28;20230;-73
2022/09/24 06:55:20;;;;;;;10.53;8.87;;;12.00;99.90;;;;;;5015704;28;20176;-72
2022/09/24 06:57:46;;;;;;;13.23;8.65;;;12.00;99.90;;;;;;5007779;28;20542;-73
2022/09/24 07:00:13;;;;;;;13.67;9.70;;;12.10;99.90;;;;;;4994244;28;20639;-72
2022/09/24 07:02:39;;;;;;;9.95;8.88;;;12.10;99.90;;;;;;5009328;28;20274;-73
2022/09/24 07:05:06;;;;;;;9.75;8.13;;;12.10;99.90;;;;;;4994983;28;20245;-73
2022/09/24 07:07:33;;;;;;;11.27;8.55;;;12.20;99.90;;;;;;5024946;28;20182;-72
2022/09/24 07:10:00;;;;;;;10.27;8.73;;;12.20;99.90;;;;;;5035592;28;20202;-72
2022/09/24 07:12:28;;;;;;;11.95;7.72;;;12.30;99.90;;;;;;5035541;28;20178;-70
2022/09/24 07:14:54;;;;;;;12.07;9.13;;;12.40;99.90;;;;;;5020515;28;20211;-70
2022/09/24 07:17:20;;;;;;;11.00;9.27;;;12.40;99.90;;;;;;5016183;28;20168;-72
2022/09/24 07:19:45;;;;;;;10.75;8.50;;;12.50;99.90;;;;;;5014605;28;20270;-72
2022/09/24 07:22:11;;;;;;;13.38;9.73;;;12.50;99.90;;;;;;5016450;28;20179;-72
2022/09/24 07:24:37;;;;;;;17.88;10.68;;;12.60;99.90;;;;;;5016409;28;20160;-73
2022/09/24 07:27:04;;;;;;;17.83;10.18;;;12.50;99.90;;;;;;5014332;28;20176;-72
2022/09/24 07:29:30;;;;;;;12.70;9.43;;;12.60;99.90;;;;;;4994752;28;20196;-73
2022/09/24 07:31:56;;;;;;;14.80;10.43;;;12.70;99.90;;;;;;4996078;28;20183;-73
2022/09/24 07:34:21;;;;;;;11.85;10.10;;;12.70;99.90;;;;;;4996069;28;20173;-72
2022/09/24 07:36:51;;;;;;;16.67;10.95;;;12.70;99.90;;;;;;5012056;28;20262;-71
2022/09/24 07:39:19;;;;;;;19.23;11.75;;;12.80;99.90;;;;;;5034435;28;20734;-72
2022/09/24 07:45:08;;;;;;;14.52;11.20;;;12.80;99.90;;;;;;5043647;23;20273;-73
2022/09/24 07:47:34;;;;;;;14.02;10.85;;;12.70;99.90;;;;;;5036133;28;20178;-73
2022/09/24 07:50:00;;;;;;;16.30;11.30;;;12.80;99.90;;;;;;5035466;28;20201;-73
2022/09/24 07:52:26;;;;;;;14.60;10.05;;;12.90;99.90;;;;;;5034250;28;20559;-73
2022/09/24 07:54:53;;;;;;;13.77;10.10;;;13.00;99.90;;;;;;5035605;28;20233;-73
2022/09/24 07:57:18;;;;;;;18.88;11.35;;;13.10;99.90;;;;;;5035418;28;20179;-73
2022/09/24 07:59:44;;;;;;;17.17;10.98;;;13.10;99.90;;;;;;5034680;28;20617;-73
2022/09/24 08:02:15;;;;;;;14.10;9.50;;;13.20;99.90;;;;;;5035971;28;20526;-73
2022/09/24 08:04:42;;;;;;;18.65;12.88;;;13.30;99.90;;;;;;5036335;28;20164;-73
2022/09/24 08:07:08;;;;;;;13.82;10.68;;;13.30;99.90;;;;;;5046555;28;20265;-73
2022/09/24 08:09:34;;;;;;;19.45;13.02;;;13.40;99.90;;;;;;5055150;28;20202;-73
2022/09/24 08:12:00;;;;;;;19.45;12.38;;;13.60;99.90;;;;;;5055158;28;20174;-72
2022/09/24 08:14:25;;;;;;;19.10;13.73;;;13.60;99.90;;;;;;5044728;28;20187;-74
2022/09/24 08:16:51;;;;;;;18.90;13.43;;;13.80;99.90;;;;;;5034823;28;20175;-74
2022/09/24 08:19:17;;;;;;;18.08;13.48;;;13.90;99.90;;;;;;5033334;28;20578;-74
2022/09/24 08:21:42;;;;;;;22.10;13.57;;;14.20;99.90;;;;;;5033235;28;20226;-72
2022/09/24 08:24:08;;;;;;;19.35;13.85;;;14.40;99.90;;;;;;5034179;28;20193;-72
2022/09/24 08:26:34;;;;;;;16.55;12.23;;;14.70;99.90;;;;;;5034255;28;20179;-73
2022/09/24 08:29:00;;;;;;;22.52;13.88;;;14.80;99.90;;;;;;5017827;28;20636;-72
2022/09/24 08:31:26;;;;;;;20.05;13.30;;;15.00;99.90;;;;;;5013405;28;20203;-73
2022/09/24 08:33:52;;;;;;;20.42;13.77;;;15.00;99.90;;;;;;5014763;28;20218;-72
2022/09/24 08:36:17;;;;;;;17.70;12.85;;;15.00;99.90;;;;;;5022913;28;20186;-72
2022/09/24 08:38:43;;;;;;;15.48;11.40;;;14.80;99.90;;;;;;5054214;28;20515;-73
2022/09/24 08:41:12;;;;;;;17.67;13.52;;;14.80;99.90;;;;;;5052961;28;20657;-73
2022/09/24 08:43:56;;;;;;;19.33;13.30;;;14.80;99.90;;;;;;5050486;28;20214;-73
2022/09/24 08:49:52;;;;;;;15.70;12.00;;;15.10;99.90;;;;;;5035257;28;20206;-73
2022/09/24 08:52:47;;;;;;;16.52;11.57;;;15.30;99.90;;;;;;5036281;28;20637;-74
2022/09/24 08:55:38;;;;;;;16.85;10.73;;;15.50;99.90;;;;;;5033793;28;20585;-73
2022/09/24 08:58:11;;;;;;;13.38;10.05;;;15.70;99.90;;;;;;5026108;28;20271;-72
2022/09/24 09:00:50;;;;;;;18.98;11.88;;;15.70;99.90;;;;;;5014531;28;20203;-72
2022/09/24 09:03:34;;;;;;;16.95;11.10;;;15.80;99.90;;;;;;5014025;28;20608;-72
2022/09/24 09:06:15;;;;;;;15.27;10.60;;;15.90;99.90;;;;;;5033642;28;20175;-72
2022/09/24 09:09:04;;;;;;;15.00;10.15;;;15.90;99.90;;;;;;5053132;28;20174;-73
2022/09/24 09:11:33;;;;;;;12.50;8.80;;;16.00;99.90;;;;;;5053915;28;20167;-73
2022/09/24 09:14:23;;;;;;;15.05;9.25;;;16.00;99.90;;;;;;5046834;28;20268;-73
2022/09/24 09:16:58;;;;;;;13.27;9.65;;;16.10;99.90;;;;;;5033959;28;20284;-75
2022/09/24 09:19:29;;;;;;;12.40;9.40;;;16.20;99.90;;;;;;5033205;28;20305;-72
2022/09/24 09:22:11;;;;;;;10.27;8.13;;;16.30;99.90;;;;;;5035378;28;20237;-73
2022/09/24 09:24:48;;;;;;;12.90;9.18;;;16.40;99.90;;;;;;5033072;28;20179;-74
2022/09/24 09:27:16;;;;;;;14.40;10.23;;;16.60;99.90;;;;;;5032700;28;20682;-72
2022/09/24 09:29:45;;;;;;;13.25;10.15;;;16.80;99.90;;;;;;5013928;28;20196;-73
2022/09/24 09:32:39;;;;;;;12.73;9.52;;;16.80;99.90;;;;;;5014245;28;20167;-73
2022/09/24 09:35:26;;;;;;;15.55;10.63;;;17.00;99.90;;;;;;5014496;28;20250;-73
2022/09/24 09:38:02;;;;;;;11.95;8.45;;;17.00;99.90;;;;;;5048596;28;20218;-72
2022/09/24 09:40:50;;;;;;;12.40;8.55;;;17.00;99.90;;;;;;5053999;28;20202;-73
2022/09/24 09:43:16;;;;;;;11.90;8.85;;;17.20;99.90;;;;;;5054041;28;20574;-73
2022/09/24 09:46:08;;;;;;;13.32;9.50;;;17.10;99.90;;;;;;5033281;28;20267;-73
2022/09/24 09:48:47;;;;;;;11.68;8.48;;;17.00;99.90;;;;;;5033843;28;20160;-73
2022/09/24 09:51:19;;;;;;;14.35;9.00;;;17.00;99.90;;;;;;5033686;28;20171;-73
2022/09/24 09:54:01;;;;;;;16.65;9.98;;;16.80;99.90;;;;;;5033931;28;20182;-77
2022/09/24 09:56:48;;;;;;;11.75;8.20;;;16.60;99.90;;;;;;5032673;28;20199;-76
2022/09/24 09:59:20;;;;;;;12.25;8.50;;;16.60;99.90;;;;;;5033528;28;20207;-76
2022/09/24 10:01:55;;;;;;;12.60;8.57;;;16.50;99.90;;;;;;5035870;28;20282;-73
2022/09/24 10:04:41;;;;;;;12.70;8.57;;;16.60;99.90;;;;;;5035991;28;20225;-73
2022/09/24 10:07:10;;;;;;;11.80;9.02;;;16.60;99.90;;;;;;5046990;28;20196;-74
2022/09/24 10:09:40;;;;;;;9.90;7.53;;;16.60;99.90;;;;;;5057001;28;20256;-71
2022/09/24 10:12:20;;;;;;;11.52;8.40;;;16.70;99.90;;;;;;5057916;28;20615;-73
2022/09/24 10:14:58;;;;;;;11.20;8.45;;;16.80;99.90;;;;;;5043316;28;20226;-71
2022/09/24 10:17:32;;;;;;;11.70;8.15;;;16.80;99.90;;;;;;5037415;28;20589;-71
2022/09/24 10:20:00;;;;;;;11.32;8.43;;;16.80;99.90;;;;;;5036857;28;20227;-71
2022/09/24 10:22:28;;;;;;;13.20;9.93;;;16.90;99.90;;;;;;5035937;28;20175;-70
2022/09/24 10:24:57;;;;;;;12.15;9.15;;;16.90;99.90;;;;;;5038140;28;20175;-71
2022/09/24 10:27:32;;;;;;;11.38;8.02;;;16.90;99.90;;;;;;5039501;28;20183;-71
2022/09/24 10:32:43;;;;;;;14.23;9.85;;;17.10;99.90;;;;;;5037444;28;20673;-71
2022/09/24 10:35:34;;;;;;;16.20;10.80;;;17.00;99.90;;;;;;5037742;28;20176;-72
2022/09/24 10:38:13;;;;;;;13.43;9.88;;;16.90;99.90;;;;;;5055001;28;20183;-71
2022/09/24 10:40:39;;;;;;;16.17;10.43;;;16.90;99.90;;;;;;5059321;28;20205;-74
2022/09/24 10:43:06;;;;;;;12.43;9.40;;;16.80;99.90;;;;;;5061707;28;20198;-73
2022/09/24 10:46:00;;;;;;;17.45;11.10;;;16.80;99.90;;;;;;5037337;28;20732;-74
2022/09/24 10:48:38;;;;;;;13.95;9.88;;;16.90;99.90;;;;;;5035426;28;20270;-74
2022/09/24 10:51:40;;;;;;;16.73;11.15;;;16.80;99.90;;;;;;5036184;28;20221;-71
2022/09/24 10:54:29;;;;;;;12.68;9.48;;;16.70;99.90;;;;;;5036830;28;20167;-76
2022/09/24 10:56:58;;;;;;;14.77;9.50;;;16.70;99.90;;;;;;5037500;28;20179;-77
2022/09/24 10:59:54;;;;;;;11.93;8.77;;;16.70;99.90;;;;;;5015834;28;20211;-74
2022/09/24 11:02:39;;;;;;;16.60;9.98;;;16.70;99.90;;;;;;5018390;28;20651;-73
2022/09/24 11:05:22;;;;;;;16.17;10.50;;;16.70;99.90;;;;;;5019369;28;20327;-73
2022/09/24 11:07:59;;;;;;;13.07;9.57;;;16.70;99.90;;;;;;5050401;28;20190;-71
2022/09/24 11:10:50;;;;;;;11.95;9.07;;;16.60;99.90;;;;;;5058833;28;20291;-74
2022/09/24 11:13:43;;;;;;;9.93;7.43;;;16.60;99.90;;;;;;5058085;28;20349;-73
2022/09/24 11:16:32;;;;;;;15.15;9.57;;;16.60;99.90;;;;;;5035558;28;20167;-73
2022/09/24 11:19:21;;;;;;;12.63;7.72;;;16.50;99.90;;;;;;5035017;28;20227;-73
2022/09/24 11:22:13;;;;;;;11.95;8.68;;;16.50;99.90;;;;;;5006495;28;20186;-72
2022/09/24 11:24:54;;;;;;;12.00;7.85;;;16.40;99.90;;;;;;5037816;28;20174;-73
2022/09/24 11:27:42;;;;;;;11.85;8.30;;;16.40;99.90;;;;;;5035248;28;20174;-73
2022/09/24 11:30:20;;;;;;;11.00;8.10;;;16.30;99.90;;;;;;5014833;28;20231;-74
2022/09/24 11:33:13;;;;;;;11.95;8.20;;;16.30;99.90;;;;;;5016998;28;20536;-74
2022/09/24 11:36:05;;;;;;;10.48;7.63;;;16.20;99.90;;;;;;5016165;28;20263;-73
2022/09/24 11:38:43;;;;;;;10.80;8.38;;;16.20;99.90;;;;;;5036296;28;20556;-73
2022/09/24 11:41:12;;;;;;;11.70;8.00;;;16.20;99.90;;;;;;5035102;28;20233;-74
2022/09/24 11:43:47;;;;;;;10.30;8.05;;;16.20;99.90;;;;;;5036739;28;20190;-73
2022/09/24 11:46:16;;;;;;;12.02;7.00;;;16.30;99.90;;;;;;5035335;28;20197;-73
2022/09/24 11:49:02;;;;;;;10.52;7.32;;;16.20;99.90;;;;;;5035469;28;20236;-73
2022/09/24 11:51:53;;;;;;;11.63;7.55;;;16.20;99.90;;;;;;5036674;28;20159;-73
2022/09/24 11:54:42;;;;;;;11.30;7.97;;;16.30;99.90;;;;;;5034465;28;20624;-74
2022/09/24 11:57:14;;;;;;;10.85;7.88;;;16.20;99.90;;;;;;5034653;28;20168;-73
2022/09/24 11:59:59;;;;;;;11.82;8.15;;;16.20;99.90;;;;;;5014727;28;20207;-74
2022/09/24 12:02:34;;;;;;;10.30;7.65;;;16.10;99.90;;;;;;5015164;28;20207;-73
2022/09/24 12:05:23;;;;;;;12.30;8.57;;;16.10;99.90;;;;;;5016381;28;20160;-73
2022/09/24 12:07:57;;;;;;;11.95;8.80;;;16.20;99.90;;;;;;5042508;28;20195;-73
2022/09/24 12:10:34;;;;;;;10.43;7.32;;;16.10;99.90;;;;;;5055803;28;20190;-73
2022/09/24 12:13:26;;;;;;;9.65;6.68;;;16.00;99.90;;;;;;5054937;28;20574;-73
2022/09/24 12:16:10;;;;;;;11.00;8.55;;;15.90;99.90;;;;;;5014658;28;20175;-73
2022/09/24 12:18:58;;;;;;;13.43;9.02;;;15.90;99.90;;;;;;5016380;28;20238;-74
2022/09/24 12:21:39;;;;;;;12.77;8.68;;;15.80;99.90;;;;;;5015699;28;20187;-73
2022/09/24 12:24:33;;;;;;;15.55;10.43;;;15.60;99.90;;;;;;5018372;28;20199;-73
2022/09/24 12:27:06;;;;;;;12.45;8.38;;;15.50;99.90;;;;;;5015186;28;20211;-73
2022/09/24 12:32:54;;;;;;;12.80;9.18;;;15.30;99.90;;;;;;5016912;28;20167;-73
2022/09/24 12:35:48;;;;;;;15.30;10.63;;;15.00;99.90;;;;;;5014625;28;20751;-73
2022/09/24 12:38:41;;;;;;;14.57;10.30;;;14.90;99.90;;;;;;5018048;28;20701;-74
2022/09/24 12:41:15;;;;;;;17.15;11.80;;;14.90;99.90;;;;;;5015520;28;20260;-73
2022/09/24 12:43:50;;;;;;;16.05;11.73;;;14.70;99.90;;;;;;5019076;28;20194;-72
2022/09/24 12:46:24;;;;;;;16.70;11.43;;;14.60;99.90;;;;;;5035012;28;20186;-73
2022/09/24 12:48:53;;;;;;;15.40;11.43;;;14.60;99.90;;;;;;5034016;28;20722;-75
2022/09/24 12:51:25;;;;;;;18.58;10.95;;;14.60;99.90;;;;;;5032766;28;20190;-74
2022/09/24 12:54:07;;;;;;;14.52;11.27;;;14.50;99.90;;;;;;5032520;28;20682;-73
2022/09/24 12:56:33;;;;;;;13.45;10.50;;;14.60;99.90;;;;;;5034671;28;20204;-74
2022/09/24 12:59:01;;;;;;;13.85;10.60;;;14.60;99.90;;;;;;5018697;28;20211;-72
2022/09/24 13:01:30;;;;;;;13.65;9.98;;;14.60;99.90;;;;;;5013691;28;20651;-73
2022/09/24 13:04:13;;;;;;;12.80;9.48;;;14.70;99.90;;;;;;5015255;28;20179;-74
2022/09/24 13:06:40;;;;;;;14.98;10.93;;;14.80;99.90;;;;;;5028947;28;20189;-73
2022/09/24 13:09:39;;;;;;;15.05;10.93;;;14.80;99.90;;;;;;5055081;28;20198;-72
2022/09/24 13:12:19;;;;;;;14.85;10.50;;;14.80;99.90;;;;;;5054293;28;20175;-73
2022/09/24 13:15:08;;;;;;;18.48;11.48;;;14.80;99.90;;;;;;5041099;28;20194;-72
2022/09/24 13:17:37;;;;;;;14.43;9.55;;;14.90;99.90;;;;;;5033740;28;20159;-73
2022/09/24 13:20:17;;;;;;;16.95;12.60;;;14.90;99.90;;;;;;5032227;28;20213;-73